PAGY/SGY METAR and TAF weather

Enter ICAO airport designator
Station Type Date Time Source
PAGY METAR 2024/05/28 22:53 UTC NOAA

PAGY 282253Z AUTO 20018KT 10SM FEW085 14/M02 A2988 RMK AO2 SLP119 T01391017 TSNO


Station Type Date Time Source
PAGY Decoded METAR 2024/05/28 22:53 UTC NOAA

SKAGWAY AIRPORT, AK, United States (PAGY) 59-28N 135-19W 5M
May 28, 2024 - 06:53 PM EDT / 2024.05.28 2253 UTC
Wind: from the SSW (200 degrees) at 21 MPH (18 KT):0
Visibility: 10 mile(s):0
Sky conditions: mostly clear
Temperature: 57.0 F (13.9 C)
Dew Point: 28.9 F (-1.7 C)
Relative Humidity: 33%
Pressure (altimeter): 29.88 in. Hg (1011 hPa)
ob: PAGY 282253Z AUTO 20018KT 10SM FEW085 14/M02 A2988 RMK AO2 SLP119 T01391017 TSNO
cycle: 23

Station Type Date Time Source
PAGY TAF 2024/05/28 18:24 UTC NOAA